createdAt,value
2019-01-24T00:02:25.048Z,-3.25
2019-01-24T00:04:55.264Z,-3.04
2019-01-24T00:07:25.458Z,-3.23
2019-01-24T00:09:55.506Z,-3.20
2019-01-24T00:12:25.680Z,-3.11
2019-01-24T00:14:55.739Z,-3.04
2019-01-24T00:17:25.886Z,-3.14
2019-01-24T00:22:54.482Z,-3.43
2019-01-24T00:25:26.130Z,-3.33
2019-01-24T00:27:56.327Z,-3.60
2019-01-24T00:30:27.988Z,-3.60
2019-01-24T00:32:59.347Z,-3.29
2019-01-24T00:35:29.594Z,-3.67
2019-01-24T00:37:59.814Z,-3.25
2019-01-24T00:40:29.842Z,-3.43
2019-01-24T00:42:59.912Z,-3.28
2019-01-24T00:45:30.038Z,-3.34
2019-01-24T00:48:02.387Z,-3.25
2019-01-24T00:50:34.008Z,-3.44
2019-01-24T00:53:04.377Z,-3.34
2019-01-24T00:55:34.502Z,-3.25
2019-01-24T00:58:04.808Z,-3.16
2019-01-24T01:00:52.057Z,-3.28
2019-01-24T01:03:35.212Z,-3.46
2019-01-24T01:06:08.480Z,-3.38
2019-01-24T01:08:38.468Z,-3.44
2019-01-24T01:11:08.419Z,-3.47
2019-01-24T01:13:40.672Z,-3.32
2019-01-24T01:16:10.597Z,-3.21
2019-01-24T01:18:40.848Z,-3.49
2019-01-24T01:21:12.038Z,-3.18
2019-01-24T01:23:45.290Z,-2.91
2019-01-24T01:26:15.406Z,-3.43
2019-01-24T01:29:07.428Z,-3.46
2019-01-24T01:31:37.968Z,-3.06
2019-01-24T01:34:08.009Z,-3.18
2019-01-24T01:36:38.103Z,-3.22
2019-01-24T01:39:08.958Z,-3.33
2019-01-24T01:41:39.063Z,-3.41
2019-01-24T01:44:09.858Z,-3.52
2019-01-24T01:46:40.070Z,-3.48
2019-01-24T01:49:10.297Z,-3.58
2019-01-24T01:51:40.518Z,-3.41
2019-01-24T01:54:10.459Z,-3.33
2019-01-24T01:56:40.499Z,-3.51
2019-01-24T01:59:10.545Z,-3.41
2019-01-24T02:01:40.529Z,-3.40
2019-01-24T02:04:11.655Z,-3.27
2019-01-24T02:06:41.611Z,-3.35
2019-01-24T02:09:11.712Z,-3.28
2019-01-24T02:11:41.713Z,-3.14
2019-01-24T02:14:11.781Z,-3.21
2019-01-24T02:16:44.034Z,-3.14
2019-01-24T02:19:14.027Z,-3.09
2019-01-24T02:21:43.930Z,-3.25
2019-01-24T02:24:14.053Z,-2.95
2019-01-24T02:26:45.409Z,-3.07
2019-01-24T02:29:17.524Z,-2.93
2019-01-24T02:31:47.569Z,-3.04
2019-01-24T02:34:17.614Z,-2.80
2019-01-24T02:36:47.486Z,-2.99
2019-01-24T02:39:17.484Z,-2.94
2019-01-24T02:41:47.489Z,-2.86
2019-01-24T02:44:17.406Z,-3.14
2019-01-24T02:46:47.616Z,-2.91
2019-01-24T02:49:17.905Z,-2.91
2019-01-24T02:51:48.799Z,-3.09
2019-01-24T02:54:18.926Z,-2.96
2019-01-24T02:56:49.008Z,-2.80
2019-01-24T02:59:25.314Z,-3.04
2019-01-24T03:01:55.303Z,-2.88
2019-01-24T03:04:25.294Z,-2.88
2019-01-24T03:06:55.266Z,-2.79
2019-01-24T03:09:25.199Z,-3.12
2019-01-24T03:11:55.327Z,-2.97
2019-01-24T03:14:25.365Z,-3.37
2019-01-24T03:16:55.396Z,-3.05
2019-01-24T03:19:25.616Z,-2.75
2019-01-24T03:21:55.748Z,-2.66
2019-01-24T03:24:25.705Z,-2.69
2019-01-24T03:27:05.055Z,-3.13
2019-01-24T03:29:35.083Z,-2.70
2019-01-24T03:32:08.603Z,-2.85
2019-01-24T03:34:38.732Z,-2.70
2019-01-24T03:37:11.071Z,-2.67
2019-01-24T03:39:42.641Z,-2.77
2019-01-24T03:42:13.152Z,-2.50
2019-01-24T03:44:43.592Z,-2.51
2019-01-24T03:47:13.931Z,-2.57
2019-01-24T03:49:43.865Z,-3.02
2019-01-24T03:52:13.791Z,-2.79
2019-01-24T03:54:43.720Z,-2.80
2019-01-24T03:57:13.787Z,-2.74
2019-01-24T03:59:44.811Z,-2.85
2019-01-24T04:02:16.309Z,-3.12
2019-01-24T04:04:46.103Z,-2.93
2019-01-24T04:07:16.053Z,-2.66
2019-01-24T04:09:46.249Z,-2.87
2019-01-24T04:12:21.286Z,-2.87
2019-01-24T04:15:00.583Z,-3.17
2019-01-24T04:17:33.237Z,-3.11
2019-01-24T04:20:03.107Z,-2.99
2019-01-24T04:22:33.067Z,-3.10
2019-01-24T04:25:02.884Z,-2.83
2019-01-24T04:27:37.610Z,-2.75
2019-01-24T04:30:09.878Z,-2.75
2019-01-24T04:32:39.808Z,-2.86
2019-01-24T04:35:19.269Z,-2.83
2019-01-24T04:37:41.853Z,-2.87
2019-01-24T04:40:16.219Z,-2.78
2019-01-24T04:42:47.526Z,-2.88
2019-01-24T04:45:19.156Z,-3.15
2019-01-24T04:47:52.923Z,-2.95
2019-01-24T04:50:22.758Z,-2.78
2019-01-24T04:52:54.699Z,-3.05
2019-01-24T04:55:24.629Z,-2.97
2019-01-24T04:57:54.985Z,-2.77
2019-01-24T05:00:27.351Z,-2.79
2019-01-24T05:03:20.176Z,-2.99
2019-01-24T05:05:50.133Z,-2.96
2019-01-24T05:08:20.310Z,-2.93
2019-01-24T05:10:50.178Z,-3.09
2019-01-24T05:13:20.026Z,-2.96
2019-01-24T05:15:51.632Z,-3.09
2019-01-24T05:18:24.492Z,-2.99
2019-01-24T05:20:54.779Z,-3.08
2019-01-24T05:23:24.608Z,-3.16
2019-01-24T05:25:56.957Z,-3.24
2019-01-24T05:28:27.018Z,-3.30
2019-01-24T05:31:01.773Z,-3.43
2019-01-24T05:33:37.060Z,-3.28
2019-01-24T05:36:06.886Z,-3.42
2019-01-24T05:38:36.850Z,-3.45
2019-01-24T05:41:06.782Z,-3.56
2019-01-24T05:43:36.723Z,-3.28
2019-01-24T05:46:06.716Z,-3.12
2019-01-24T05:48:36.758Z,-2.99
2019-01-24T05:51:06.750Z,-3.16
2019-01-24T05:53:36.882Z,-3.10
2019-01-24T05:56:08.146Z,-3.17
2019-01-24T05:58:38.066Z,-3.13
2019-01-24T06:01:09.516Z,-3.31
2019-01-24T06:03:42.612Z,-3.08
2019-01-24T06:06:13.620Z,-3.05
2019-01-24T06:08:43.569Z,-3.18
2019-01-24T06:11:13.577Z,-3.15
2019-01-24T06:13:44.533Z,-3.26
2019-01-24T06:16:15.683Z,-3.27
2019-01-24T06:18:45.661Z,-3.23
2019-01-24T06:21:15.653Z,-3.03
2019-01-24T06:23:45.610Z,-2.97
2019-01-24T06:26:15.583Z,-3.15
2019-01-24T06:28:51.313Z,-3.36
2019-01-24T06:31:21.159Z,-3.30
2019-01-24T06:33:51.051Z,-3.14
2019-01-24T06:36:20.989Z,-3.23
2019-01-24T06:38:50.910Z,-3.05
2019-01-24T06:41:20.834Z,-3.16
2019-01-24T06:43:53.833Z,-3.01
2019-01-24T06:46:23.863Z,-2.93
2019-01-24T06:48:53.788Z,-2.76
2019-01-24T06:51:23.723Z,-2.79
2019-01-24T06:53:53.557Z,-2.64
2019-01-24T06:56:24.582Z,-2.78
2019-01-24T06:58:54.874Z,-2.68
2019-01-24T07:01:24.833Z,-2.71
2019-01-24T07:03:55.017Z,-2.58
2019-01-24T07:06:25.115Z,-2.75
2019-01-24T07:08:55.189Z,-2.75
2019-01-24T07:11:25.172Z,-2.72
2019-01-24T07:13:55.175Z,-2.87
2019-01-24T07:16:25.215Z,-2.76
2019-01-24T07:18:55.157Z,-2.56
2019-01-24T07:21:25.112Z,-2.49
2019-01-24T07:23:55.187Z,-2.86
2019-01-24T07:26:25.121Z,-2.77
2019-01-24T07:28:55.078Z,-2.73
2019-01-24T07:31:25.352Z,-2.41
2019-01-24T07:33:55.261Z,-2.62
2019-01-24T07:36:25.284Z,-2.46
2019-01-24T07:38:55.308Z,-2.65
2019-01-24T07:41:25.321Z,-2.31
2019-01-24T07:43:55.324Z,-2.59
2019-01-24T07:46:25.341Z,-2.52
2019-01-24T07:48:55.883Z,-2.50
2019-01-24T07:51:27.134Z,-2.32
2019-01-24T07:53:57.283Z,-2.09
2019-01-24T07:56:27.408Z,-2.34
2019-01-24T07:58:57.588Z,-2.08
2019-01-24T08:01:29.189Z,-1.96
2019-01-24T08:03:59.303Z,-1.80
2019-01-24T08:06:29.218Z,-1.97
2019-01-24T08:08:59.235Z,-1.75
2019-01-24T08:11:29.248Z,-1.69
2019-01-24T08:13:59.454Z,-1.78
2019-01-24T08:16:30.854Z,-1.66
2019-01-24T08:19:01.228Z,-1.73
2019-01-24T08:21:31.223Z,-1.85
2019-01-24T08:24:01.258Z,-1.83
2019-01-24T08:26:31.166Z,-1.81
2019-01-24T08:29:04.008Z,-1.94
2019-01-24T08:31:33.975Z,-1.74
2019-01-24T08:34:03.900Z,-1.89
2019-01-24T08:36:33.954Z,-1.57
2019-01-24T08:39:05.648Z,-1.65
2019-01-24T08:41:35.755Z,-1.57
2019-01-24T08:44:05.670Z,-1.54
2019-01-24T08:46:38.642Z,-1.44
2019-01-24T08:49:08.616Z,-1.36
2019-01-24T08:51:38.596Z,-1.33
2019-01-24T08:54:08.545Z,-1.35
2019-01-24T08:56:38.391Z,-1.46
2019-01-24T08:59:08.431Z,-1.41
2019-01-24T09:01:38.551Z,-1.48
2019-01-24T09:04:08.380Z,-1.60
2019-01-24T09:06:38.362Z,-1.58
2019-01-24T09:09:09.697Z,-1.80
2019-01-24T09:11:39.718Z,-1.68
2019-01-24T09:14:09.725Z,-1.41
2019-01-24T09:16:39.767Z,-1.43
2019-01-24T09:19:09.696Z,-1.41
2019-01-24T09:21:39.636Z,-1.48
2019-01-24T09:24:09.591Z,-1.45
2019-01-24T09:26:39.585Z,-1.54
2019-01-24T09:29:09.541Z,-1.40
2019-01-24T09:31:40.926Z,-1.40
2019-01-24T09:34:11.911Z,-1.32
2019-01-24T09:36:41.893Z,-1.16
2019-01-24T09:39:11.845Z,-0.92
2019-01-24T09:41:41.911Z,-1.02
2019-01-24T09:44:11.784Z,-1.08
2019-01-24T09:46:41.753Z,-1.38
2019-01-24T09:49:11.720Z,-1.56
2019-01-24T09:51:41.605Z,-1.46
2019-01-24T09:54:13.333Z,-1.63
2019-01-24T09:56:43.441Z,-1.99
2019-01-24T09:59:13.455Z,-1.85
2019-01-24T10:01:43.367Z,-1.66
2019-01-24T10:04:13.406Z,-1.45
2019-01-24T10:06:43.551Z,-1.27
2019-01-24T10:09:13.569Z,-1.51
2019-01-24T10:11:43.539Z,-1.54
2019-01-24T10:14:13.577Z,-1.47
2019-01-24T10:16:43.659Z,-1.66
2019-01-24T10:19:13.587Z,-1.84
2019-01-24T10:21:43.462Z,-1.26
2019-01-24T10:24:13.403Z,-1.17
2019-01-24T10:26:43.387Z,-1.28
2019-01-24T10:29:13.323Z,-1.68
2019-01-24T10:31:43.217Z,-1.84
2019-01-24T10:34:13.109Z,-1.57
2019-01-24T10:36:43.321Z,-1.32
2019-01-24T10:39:13.606Z,-0.82
2019-01-24T10:41:44.593Z,-0.63
2019-01-24T10:44:14.677Z,-0.63
2019-01-24T10:46:44.585Z,-0.75
2019-01-24T10:49:14.573Z,-0.92
2019-01-24T10:51:44.451Z,-0.79
2019-01-24T10:54:14.662Z,-1.05
2019-01-24T10:56:51.745Z,-0.93
2019-01-24T10:59:49.623Z,-0.64
2019-01-24T11:02:19.583Z,-0.38
2019-01-24T11:04:56.718Z,-0.51
2019-01-24T11:07:26.788Z,-0.42
2019-01-24T11:09:59.129Z,-0.22
2019-01-24T11:12:29.128Z,-0.08
2019-01-24T11:15:00.548Z,-0.36
2019-01-24T11:17:32.598Z,0.02
2019-01-24T11:20:02.468Z,-0.42
2019-01-24T11:22:32.437Z,-0.33
2019-01-24T11:25:02.402Z,-0.78
2019-01-24T11:27:32.463Z,-0.31
2019-01-24T11:30:02.472Z,0.05
2019-01-24T11:32:32.590Z,0.21
2019-01-24T11:35:02.677Z,0.17
2019-01-24T11:37:32.978Z,0.25
2019-01-24T11:40:03.021Z,0.32
2019-01-24T11:42:33.010Z,0.31
2019-01-24T11:45:03.056Z,0.01
2019-01-24T11:47:33.051Z,0.03
2019-01-24T11:50:03.152Z,0.01
2019-01-24T11:52:33.265Z,-0.04
2019-01-24T11:55:03.467Z,-0.29
2019-01-24T11:57:33.591Z,-0.18
2019-01-24T12:00:03.702Z,-0.05
2019-01-24T12:02:39.709Z,-0.11
2019-01-24T12:05:07.954Z,-0.02
2019-01-24T12:07:39.100Z,0.21
2019-01-24T12:10:12.314Z,0.18
2019-01-24T12:16:16.068Z,0.15
2019-01-24T12:18:46.402Z,-0.20
2019-01-24T12:21:16.491Z,-0.40
2019-01-24T12:23:46.620Z,-0.09
2019-01-24T12:26:16.670Z,0.27
2019-01-24T12:28:46.655Z,0.60
2019-01-24T12:31:16.892Z,0.56
2019-01-24T12:33:46.772Z,0.63
2019-01-24T12:36:16.604Z,0.61
2019-01-24T12:38:46.520Z,0.77
2019-01-24T12:41:16.658Z,0.63
2019-01-24T12:43:49.137Z,0.56
2019-01-24T12:46:21.326Z,0.50
2019-01-24T12:48:51.542Z,0.56
2019-01-24T12:51:21.664Z,0.43
2019-01-24T12:53:52.652Z,0.30
2019-01-24T12:56:22.620Z,0.28
2019-01-24T12:58:52.588Z,0.30
2019-01-24T13:01:27.028Z,0.55
2019-01-24T13:04:03.868Z,0.38
2019-01-24T13:06:37.643Z,0.44
2019-01-24T13:09:08.685Z,0.18
2019-01-24T13:11:40.457Z,0.51
2019-01-24T13:14:10.404Z,0.61
2019-01-24T13:16:40.425Z,0.49
2019-01-24T13:19:10.583Z,0.27
2019-01-24T13:21:46.375Z,0.24
2019-01-24T13:24:16.351Z,0.20
2019-01-24T13:26:47.577Z,0.29
2019-01-24T13:29:17.567Z,0.07
2019-01-24T13:31:47.715Z,0.43
2019-01-24T13:34:19.789Z,0.25
2019-01-24T13:37:18.250Z,0.12
2019-01-24T13:39:53.002Z,0.30
2019-01-24T13:45:58.615Z,0.51
2019-01-24T13:48:28.799Z,-0.19
2019-01-24T13:51:11.795Z,0.06
2019-01-24T13:53:44.985Z,0.21
2019-01-24T13:56:14.865Z,0.15
2019-01-24T13:58:45.689Z,0.14
2019-01-24T14:01:15.649Z,0.30
2019-01-24T14:04:05.941Z,0.40
2019-01-24T14:06:35.887Z,0.55
2019-01-24T14:11:50.676Z,-0.22
2019-01-24T14:14:22.819Z,-0.04
2019-01-24T14:16:52.723Z,0.01
2019-01-24T14:19:23.005Z,0.06
2019-01-24T14:21:52.981Z,-0.05
2019-01-24T14:24:23.047Z,-0.23
2019-01-24T14:26:52.970Z,-0.45
2019-01-24T14:29:23.149Z,-0.22
2019-01-24T14:31:53.488Z,-0.50
2019-01-24T14:34:23.688Z,-0.28
2019-01-24T14:36:54.021Z,-0.45
2019-01-24T14:39:24.215Z,-0.15
2019-01-24T14:41:57.360Z,0.04
2019-01-24T14:44:27.468Z,-0.09
2019-01-24T14:46:57.656Z,-0.28
2019-01-24T14:49:28.186Z,-0.11
2019-01-24T14:51:58.505Z,-0.29
2019-01-24T14:54:29.853Z,-0.02
2019-01-24T14:56:59.925Z,-0.01
2019-01-24T14:59:29.909Z,-0.41
2019-01-24T15:02:00.847Z,-0.18
2019-01-24T15:04:30.948Z,0.00
2019-01-24T15:07:00.937Z,-0.16
2019-01-24T15:09:32.181Z,-0.29
2019-01-24T15:12:02.628Z,-0.43
2019-01-24T15:14:32.630Z,-0.21
2019-01-24T15:17:02.916Z,-0.24
2019-01-24T15:19:33.860Z,-0.23
2019-01-24T15:22:03.962Z,0.05
2019-01-24T15:24:34.070Z,-0.21
2019-01-24T15:27:04.059Z,-0.36
2019-01-24T15:29:33.980Z,-0.18
2019-01-24T15:32:07.172Z,-0.48
2019-01-24T15:34:37.182Z,-0.52
2019-01-24T15:37:07.328Z,-0.42
2019-01-24T15:39:38.585Z,-0.60
2019-01-24T15:42:08.885Z,-0.39
2019-01-24T15:44:38.955Z,-0.21
2019-01-24T15:47:09.174Z,-0.25
2019-01-24T15:49:39.349Z,-0.23
2019-01-24T15:52:09.234Z,-0.36
2019-01-24T15:54:39.222Z,-0.37
2019-01-24T15:57:10.710Z,-0.31
2019-01-24T15:59:40.744Z,-0.40
2019-01-24T16:02:10.967Z,-0.37
2019-01-24T16:04:41.057Z,-0.26
2019-01-24T16:07:11.028Z,-0.38
2019-01-24T16:09:41.096Z,-0.26
2019-01-24T16:12:11.498Z,-0.17
2019-01-24T16:14:42.290Z,-0.33
2019-01-24T16:17:26.721Z,-0.21
2019-01-24T16:20:18.478Z,-0.42
2019-01-24T16:22:48.730Z,-0.54
2019-01-24T16:25:19.048Z,-0.65
2019-01-24T16:27:49.572Z,-0.43
2019-01-24T16:30:21.892Z,-0.60
2019-01-24T16:32:57.833Z,-0.54
2019-01-24T16:35:28.102Z,-0.35
2019-01-24T16:37:58.708Z,-0.52
2019-01-24T16:40:30.262Z,-0.69
2019-01-24T16:43:10.168Z,-0.57
2019-01-24T16:45:45.491Z,-0.48
2019-01-24T16:48:15.716Z,-0.63
2019-01-24T16:50:45.889Z,-0.49
2019-01-24T16:53:15.877Z,-0.69
2019-01-24T16:55:53.059Z,-0.73
2019-01-24T16:58:25.065Z,-0.82
2019-01-24T17:01:13.238Z,-0.82
2019-01-24T17:03:43.579Z,-0.64
2019-01-24T17:06:13.749Z,-0.76
2019-01-24T17:08:44.684Z,-0.82
2019-01-24T17:11:16.161Z,-0.89
2019-01-24T17:13:46.324Z,-0.77
2019-01-24T17:16:16.243Z,-0.81
2019-01-24T17:18:46.176Z,-0.89
2019-01-24T17:21:17.947Z,-0.84
2019-01-24T17:23:48.087Z,-0.87
2019-01-24T17:26:18.105Z,-0.70
2019-01-24T17:28:48.147Z,-0.87
2019-01-24T17:31:24.029Z,-0.73
2019-01-24T17:36:43.241Z,-0.43
2019-01-24T17:39:13.857Z,-0.64
2019-01-24T17:41:44.264Z,-0.54
2019-01-24T17:44:16.337Z,-0.60
2019-01-24T17:46:49.261Z,-0.55
2019-01-24T17:49:20.812Z,-0.42
2019-01-24T17:51:50.773Z,-0.42
2019-01-24T17:54:20.799Z,-0.42
2019-01-24T17:56:51.830Z,-0.31
2019-01-24T17:59:25.845Z,-0.29
2019-01-24T18:02:07.466Z,-0.29
2019-01-24T18:04:39.160Z,-0.23
2019-01-24T18:07:09.176Z,-0.31
2019-01-24T18:09:39.151Z,-0.29
2019-01-24T18:12:10.205Z,-0.41
2019-01-24T18:14:42.232Z,-0.40
2019-01-24T18:17:18.227Z,-0.25
2019-01-24T18:19:48.279Z,-0.44
2019-01-24T18:22:18.488Z,-0.29
2019-01-24T18:24:50.051Z,-0.57
2019-01-24T18:27:20.230Z,-0.38
2019-01-24T18:29:50.219Z,-0.49
2019-01-24T18:32:22.999Z,-0.50
2019-01-24T18:34:53.294Z,-0.48
2019-01-24T18:37:24.879Z,-0.54
2019-01-24T18:40:00.132Z,-0.49
2019-01-24T18:42:30.223Z,-0.52
2019-01-24T18:45:00.391Z,-0.66
2019-01-24T18:47:30.628Z,-0.60
2019-01-24T18:50:01.668Z,-0.90
2019-01-24T18:52:34.970Z,-0.80
2019-01-24T18:55:06.509Z,-0.64
2019-01-24T18:57:40.659Z,-0.74
2019-01-24T19:00:14.438Z,-0.49
2019-01-24T19:02:47.676Z,-0.68
2019-01-24T19:05:21.065Z,-0.48
2019-01-24T19:07:54.019Z,-0.68
2019-01-24T19:10:40.231Z,-0.76
2019-01-24T19:13:12.528Z,-1.02
2019-01-24T19:15:47.336Z,-0.78
2019-01-24T19:18:17.516Z,-0.74
2019-01-24T19:20:52.756Z,-0.73
2019-01-24T19:23:22.887Z,-0.75
2019-01-24T19:25:58.425Z,-0.75
2019-01-24T19:28:34.774Z,-0.63
2019-01-24T19:31:09.085Z,-0.97
2019-01-24T19:33:40.284Z,-0.63
2019-01-24T19:36:10.665Z,-0.83
2019-01-24T19:38:58.422Z,-0.89
2019-01-24T19:41:30.870Z,-0.76
2019-01-24T19:44:00.909Z,-0.65
2019-01-24T19:46:32.312Z,-0.38
2019-01-24T19:49:14.675Z,-0.32
2019-01-24T19:51:48.015Z,-0.40
2019-01-24T19:54:18.038Z,-0.25
2019-01-24T19:56:54.486Z,-0.45
2019-01-24T19:59:22.568Z,-0.41
2019-01-24T20:01:52.811Z,-0.44
2019-01-24T20:04:23.931Z,-0.34
2019-01-24T20:06:54.006Z,-0.23
2019-01-24T20:09:23.993Z,-0.14
2019-01-24T20:11:54.908Z,-0.23
2019-01-24T20:14:37.953Z,-0.43
2019-01-24T20:17:08.165Z,-0.35
2019-01-24T20:19:38.321Z,-0.31
2019-01-24T20:22:08.314Z,-0.34
2019-01-24T20:24:38.655Z,-0.50
2019-01-24T20:27:08.679Z,-0.49
2019-01-24T20:29:38.681Z,-0.37
2019-01-24T20:32:10.918Z,-0.31
2019-01-24T20:34:40.924Z,-0.43
2019-01-24T20:37:11.207Z,-0.62
2019-01-24T20:39:41.914Z,-0.29
2019-01-24T20:42:12.612Z,-0.38
2019-01-24T20:44:42.839Z,-0.58
2019-01-24T20:47:15.017Z,-0.87
2019-01-24T20:49:47.233Z,-0.58
2019-01-24T20:52:17.496Z,-0.40
2019-01-24T20:54:47.924Z,-0.32
2019-01-24T20:57:18.700Z,-0.45
2019-01-24T20:59:50.980Z,-0.25
2019-01-24T21:02:27.623Z,-0.30
2019-01-24T21:04:58.341Z,-0.41
2019-01-24T21:07:28.897Z,-0.61
2019-01-24T21:10:01.727Z,-0.61
2019-01-24T21:12:32.186Z,-0.34
2019-01-24T21:15:02.268Z,-0.58
2019-01-24T21:17:32.461Z,-0.54
2019-01-24T21:20:02.507Z,-0.62
2019-01-24T21:22:33.930Z,-0.49
2019-01-24T21:25:04.170Z,-0.78
2019-01-24T21:27:34.354Z,-0.40
2019-01-24T21:30:05.038Z,-0.18
2019-01-24T21:32:37.040Z,-0.16
2019-01-24T21:35:08.518Z,-0.55
2019-01-24T21:37:48.031Z,-0.76
2019-01-24T21:40:19.308Z,-1.16
2019-01-24T21:42:49.470Z,-0.82
2019-01-24T21:45:26.682Z,-0.58
2019-01-24T21:47:56.858Z,-0.70
2019-01-24T21:50:27.823Z,-0.54
2019-01-24T21:52:58.097Z,-0.32
2019-01-24T21:55:29.314Z,-0.28
2019-01-24T21:58:01.185Z,-0.41
2019-01-24T22:00:33.011Z,-0.38
2019-01-24T22:03:03.919Z,-0.30
2019-01-24T22:05:34.430Z,-0.23
2019-01-24T22:08:04.690Z,-0.25
2019-01-24T22:10:35.417Z,-0.45
2019-01-24T22:13:07.815Z,-0.38
2019-01-24T22:15:38.296Z,-0.75
2019-01-24T22:18:08.879Z,-1.01
2019-01-24T22:20:40.045Z,-0.89
2019-01-24T22:23:10.483Z,-0.61
2019-01-24T22:25:41.107Z,-0.77
2019-01-24T22:28:13.045Z,-0.27
2019-01-24T22:30:50.911Z,-0.10
2019-01-24T22:33:21.019Z,-0.20
2019-01-24T22:35:51.207Z,-0.42
2019-01-24T22:38:21.574Z,-0.30
2019-01-24T22:40:51.661Z,-0.21
2019-01-24T22:43:23.380Z,-0.10
2019-01-24T22:45:53.499Z,-0.69
2019-01-24T22:48:23.509Z,-0.42
2019-01-24T22:50:53.493Z,-0.29
2019-01-24T22:53:23.403Z,-0.27
2019-01-24T22:55:53.533Z,-0.30
2019-01-24T22:58:23.936Z,-0.72
2019-01-24T23:01:29.849Z,-0.63
2019-01-24T23:04:04.439Z,-0.46
2019-01-24T23:06:34.432Z,-0.38
2019-01-24T23:09:05.913Z,-0.54
2019-01-24T23:11:39.226Z,-0.31
2019-01-24T23:14:09.551Z,-0.35
2019-01-24T23:16:41.350Z,-0.20
2019-01-24T23:19:11.415Z,-0.54
2019-01-24T23:21:41.643Z,-1.08
2019-01-24T23:24:11.679Z,-1.10
2019-01-24T23:26:41.825Z,-0.97
2019-01-24T23:29:11.871Z,-0.68
2019-01-24T23:31:43.560Z,-0.59
2019-01-24T23:34:14.003Z,-0.70
2019-01-24T23:36:44.995Z,-0.76
2019-01-24T23:39:15.665Z,-0.62
2019-01-24T23:41:45.710Z,-0.44
2019-01-24T23:44:15.693Z,-0.28
2019-01-24T23:46:47.323Z,-0.05
2019-01-24T23:49:17.301Z,-0.19
2019-01-24T23:51:48.978Z,-0.14
2019-01-24T23:54:20.519Z,-0.70
2019-01-24T23:56:52.581Z,-0.42
2019-01-24T23:59:22.601Z,-0.47
